Time;durP1;ratioP1;P1;durP2;ratioP2;P2;SDS_P1;SDS_P2;PMS_P1;PMS_P2;Temp;Humidity;BMP_temperature;BMP_pressure;BME280_temperature;BME280_humidity;BME280_pressure;Samples;Min_cycle;Max_cycle;Signal;HPM_P1;HPM_P2
2021/12/11 00:00:48;;;;;;;406.83;77.40;;;1.70;99.90;;;;;;5047858;28;20557;-69
2021/12/11 00:03:20;;;;;;;383.77;77.67;;;1.70;99.90;;;;;;5045311;28;20468;-71
2021/12/11 00:05:51;;;;;;;365.37;82.40;;;1.80;99.90;;;;;;5046808;28;20472;-70
2021/12/11 00:08:22;;;;;;;244.17;65.60;;;1.90;99.90;;;;;;5048846;28;20475;-71
2021/12/11 00:10:54;;;;;;;284.87;68.23;;;2.00;99.90;;;;;;5047127;28;20521;-70
2021/12/11 00:13:24;;;;;;;274.13;67.40;;;2.00;99.90;;;;;;5047265;28;20557;-68
2021/12/11 00:15:51;;;;;;;265.50;69.60;;;2.20;99.90;;;;;;5038566;28;20463;-68
2021/12/11 00:18:23;;;;;;;191.13;64.87;;;2.20;99.90;;;;;;5055733;28;20466;-68
2021/12/11 00:20:55;;;;;;;152.87;59.63;;;2.30;99.90;;;;;;5055148;28;20482;-71
2021/12/11 00:23:26;;;;;;;120.07;60.57;;;2.30;99.90;;;;;;5055344;28;20466;-72
2021/12/11 00:25:55;;;;;;;85.77;56.50;;;2.30;99.90;;;;;;5052997;28;20462;-71
2021/12/11 00:28:22;;;;;;;98.07;58.77;;;2.30;99.90;;;;;;5050999;28;20459;-70
2021/12/11 00:30:49;;;;;;;101.13;63.50;;;2.40;99.90;;;;;;5053471;28;20966;-70
2021/12/11 00:33:19;;;;;;;96.70;64.70;;;2.40;99.90;;;;;;5058186;28;21080;-69
2021/12/11 00:35:48;;;;;;;90.30;61.50;;;2.40;99.90;;;;;;5057467;28;20509;-68
2021/12/11 00:38:21;;;;;;;95.87;62.07;;;2.40;99.90;;;;;;5045977;28;20560;-68
2021/12/11 00:40:51;;;;;;;82.27;57.50;;;2.50;99.90;;;;;;5058575;28;20612;-68
2021/12/11 00:43:27;;;;;;;74.47;57.93;;;2.50;99.90;;;;;;5056878;28;20475;-71
2021/12/11 00:45:57;;;;;;;85.70;60.43;;;2.50;99.90;;;;;;5054933;28;20474;-70
2021/12/11 00:48:26;;;;;;;76.97;55.87;;;2.50;99.90;;;;;;5055309;28;21094;-68
2021/12/11 00:50:56;;;;;;;73.37;56.87;;;2.50;99.90;;;;;;5054097;28;20486;-68
2021/12/11 00:53:26;;;;;;;83.43;57.70;;;2.50;99.90;;;;;;5050935;28;20482;-67
2021/12/11 00:55:56;;;;;;;90.77;60.83;;;2.50;99.90;;;;;;5059066;28;20517;-71
2021/12/11 00:58:27;;;;;;;88.80;59.03;;;2.60;99.90;;;;;;5060390;28;20462;-67
2021/12/11 01:00:57;;;;;;;83.13;59.67;;;2.50;99.90;;;;;;5057599;28;20982;-68
2021/12/11 01:03:29;;;;;;;85.30;62.20;;;2.50;99.90;;;;;;5051532;28;20794;-70
2021/12/11 01:05:58;;;;;;;77.10;59.27;;;2.40;99.90;;;;;;5052621;28;20475;-70
2021/12/11 01:08:31;;;;;;;93.07;60.33;;;2.40;99.90;;;;;;5053858;28;20469;-70
2021/12/11 01:11:07;;;;;;;78.40;57.87;;;2.40;99.90;;;;;;5050196;28;20582;-71
2021/12/11 01:13:41;;;;;;;94.63;60.53;;;2.50;99.90;;;;;;5052956;28;21106;-70
2021/12/11 01:16:13;;;;;;;92.27;61.23;;;2.50;99.90;;;;;;5053281;28;20479;-67
2021/12/11 01:18:44;;;;;;;87.00;60.97;;;2.50;99.90;;;;;;5060092;28;20465;-68
2021/12/11 01:21:29;;;;;;;92.60;61.60;;;2.50;99.90;;;;;;5057923;28;20548;-69
2021/12/11 01:24:14;;;;;;;102.30;61.40;;;2.60;99.90;;;;;;5060796;28;20876;-71
2021/12/11 01:26:47;;;;;;;78.53;58.33;;;2.60;99.90;;;;;;5055612;28;20455;-68
2021/12/11 01:29:17;;;;;;;90.00;62.03;;;2.60;99.90;;;;;;5058778;28;20506;-70
2021/12/11 01:31:44;;;;;;;101.07;65.27;;;2.60;99.90;;;;;;5052431;28;20482;-69
2021/12/11 01:34:11;;;;;;;96.63;63.40;;;2.70;99.90;;;;;;5053013;28;20532;-69
2021/12/11 01:36:39;;;;;;;107.03;66.70;;;2.70;99.90;;;;;;5054028;28;20798;-69
2021/12/11 01:39:10;;;;;;;109.13;68.40;;;2.70;99.90;;;;;;5057716;28;20455;-70
2021/12/11 01:41:37;;;;;;;106.83;64.30;;;2.70;99.90;;;;;;5056958;28;20480;-69
2021/12/11 01:44:13;;;;;;;95.87;64.50;;;2.70;99.90;;;;;;5055364;28;20486;-68
2021/12/11 01:46:42;;;;;;;95.57;67.10;;;2.70;99.90;;;;;;5047746;28;20462;-70
2021/12/11 01:49:15;;;;;;;85.50;63.57;;;2.80;99.90;;;;;;5059504;28;20469;-69
2021/12/11 01:51:45;;;;;;;95.63;65.83;;;2.90;99.90;;;;;;5057002;28;20517;-71
2021/12/11 01:54:17;;;;;;;97.27;66.03;;;2.80;99.90;;;;;;5057730;28;20455;-71
2021/12/11 01:56:48;;;;;;;94.70;66.20;;;2.70;99.90;;;;;;5058006;28;20451;-68
2021/12/11 01:59:18;;;;;;;107.77;66.23;;;2.70;99.90;;;;;;5057096;28;20502;-69
2021/12/11 02:01:51;;;;;;;98.83;68.60;;;2.70;99.90;;;;;;5055933;28;20494;-70
2021/12/11 02:04:21;;;;;;;101.87;64.00;;;2.70;99.90;;;;;;5061782;28;20471;-71
2021/12/11 02:06:52;;;;;;;94.43;64.27;;;2.70;99.90;;;;;;5053734;28;20477;-69
2021/12/11 02:09:21;;;;;;;106.20;66.87;;;2.70;99.90;;;;;;5058161;28;20472;-68
2021/12/11 02:11:49;;;;;;;91.10;66.43;;;2.70;99.90;;;;;;5057423;28;20480;-70
2021/12/11 02:14:23;;;;;;;88.77;61.57;;;2.70;99.90;;;;;;5065094;28;20467;-68
2021/12/11 02:16:53;;;;;;;99.60;64.70;;;2.70;99.90;;;;;;5057717;28;20977;-70
2021/12/11 02:19:23;;;;;;;98.13;62.40;;;2.60;99.90;;;;;;5060267;28;20471;-67
2021/12/11 02:21:56;;;;;;;98.33;64.07;;;2.60;99.90;;;;;;5051104;28;20468;-68
2021/12/11 02:24:26;;;;;;;102.50;64.23;;;2.60;99.90;;;;;;5062649;28;20463;-70
2021/12/11 02:26:55;;;;;;;89.50;63.00;;;2.60;99.90;;;;;;5060824;28;20459;-70
2021/12/11 02:29:28;;;;;;;97.00;63.50;;;2.70;99.90;;;;;;5059303;28;20476;-69
2021/12/11 02:32:00;;;;;;;94.63;61.70;;;2.60;99.90;;;;;;5055247;28;20494;-71
2021/12/11 02:34:32;;;;;;;92.50;60.73;;;2.60;99.90;;;;;;5059128;28;20464;-70
2021/12/11 02:37:05;;;;;;;88.10;64.00;;;2.60;99.90;;;;;;5062926;28;20463;-68
2021/12/11 02:39:35;;;;;;;100.63;65.30;;;2.60;99.90;;;;;;5062390;28;20499;-68
2021/12/11 02:42:07;;;;;;;95.03;60.23;;;2.70;99.90;;;;;;5049514;28;20490;-69
2021/12/11 02:44:39;;;;;;;97.47;61.53;;;2.60;99.90;;;;;;5057494;28;20459;-70
2021/12/11 02:47:13;;;;;;;105.83;64.33;;;2.60;99.90;;;;;;5054170;28;20595;-68
2021/12/11 02:49:44;;;;;;;98.73;64.10;;;2.60;99.90;;;;;;5057685;28;20493;-70
2021/12/11 02:52:17;;;;;;;110.73;65.07;;;2.70;99.90;;;;;;5062920;28;20582;-68
2021/12/11 02:54:48;;;;;;;112.57;65.20;;;2.60;99.90;;;;;;5062470;28;20475;-70
2021/12/11 02:57:18;;;;;;;107.20;65.40;;;2.60;99.90;;;;;;5057567;28;20832;-69
2021/12/11 02:59:46;;;;;;;101.93;62.23;;;2.70;99.90;;;;;;5058494;28;20470;-69
2021/12/11 03:02:16;;;;;;;109.33;67.23;;;2.70;99.90;;;;;;5046462;28;20549;-69
2021/12/11 03:04:49;;;;;;;103.90;65.00;;;2.60;99.90;;;;;;5057497;28;20495;-67
2021/12/11 03:07:20;;;;;;;105.30;64.60;;;2.70;99.90;;;;;;5054590;28;20461;-71
2021/12/11 03:09:54;;;;;;;103.67;61.67;;;2.60;99.90;;;;;;5062830;28;20985;-70
2021/12/11 03:12:22;;;;;;;88.27;60.30;;;2.70;99.90;;;;;;5053092;28;20484;-70
2021/12/11 03:14:50;;;;;;;87.70;61.00;;;2.70;99.90;;;;;;5056185;28;20871;-70
2021/12/11 03:17:18;;;;;;;86.30;58.43;;;2.80;99.90;;;;;;5057266;28;20474;-68
2021/12/11 03:19:46;;;;;;;84.87;58.10;;;2.90;99.90;;;;;;5057893;28;20991;-69
2021/12/11 03:22:16;;;;;;;94.03;60.30;;;2.90;99.90;;;;;;5062061;28;20980;-69
2021/12/11 03:24:44;;;;;;;95.03;59.83;;;2.90;99.90;;;;;;5060379;28;20469;-69
2021/12/11 03:27:12;;;;;;;90.07;59.67;;;2.90;99.90;;;;;;5057580;28;20460;-68
2021/12/11 03:29:39;;;;;;;84.30;58.80;;;3.00;99.90;;;;;;5051748;28;20464;-68
2021/12/11 03:32:09;;;;;;;92.40;60.10;;;2.90;99.90;;;;;;5060869;28;20530;-69
2021/12/11 03:34:38;;;;;;;88.37;59.73;;;2.90;99.90;;;;;;5059470;28;20565;-70
2021/12/11 03:37:08;;;;;;;95.90;60.00;;;2.90;99.90;;;;;;5048097;28;20558;-69
2021/12/11 03:39:39;;;;;;;91.80;58.23;;;3.00;99.90;;;;;;5055561;28;20539;-68
2021/12/11 03:42:11;;;;;;;81.13;56.50;;;2.90;99.90;;;;;;5054200;28;21188;-69
2021/12/11 03:44:38;;;;;;;92.17;60.83;;;2.80;99.90;;;;;;5053637;28;20828;-71
2021/12/11 03:47:10;;;;;;;102.43;61.73;;;2.90;99.90;;;;;;5054570;28;20477;-68
2021/12/11 03:49:38;;;;;;;88.33;60.63;;;3.00;99.90;;;;;;5056947;28;20472;-68
2021/12/11 03:52:06;;;;;;;95.93;60.37;;;2.90;99.90;;;;;;5056460;28;20486;-70
2021/12/11 03:54:36;;;;;;;87.67;58.53;;;2.90;99.90;;;;;;5052914;28;20463;-71
2021/12/11 03:57:08;;;;;;;99.63;59.13;;;2.90;99.90;;;;;;5055105;28;20464;-71
2021/12/11 03:59:35;;;;;;;88.57;57.23;;;2.90;99.90;;;;;;5057927;28;20466;-68
2021/12/11 04:02:06;;;;;;;107.30;60.10;;;2.90;99.90;;;;;;5047152;28;20463;-70
2021/12/11 04:04:37;;;;;;;92.27;58.90;;;2.90;99.90;;;;;;5052869;28;20483;-70
2021/12/11 04:07:09;;;;;;;91.60;58.40;;;2.90;99.90;;;;;;5051313;28;20467;-67
2021/12/11 04:09:36;;;;;;;109.03;60.90;;;2.90;99.90;;;;;;5053176;28;20473;-71
2021/12/11 04:12:04;;;;;;;96.63;59.90;;;2.90;99.90;;;;;;5061341;28;20490;-71
2021/12/11 04:14:35;;;;;;;97.93;59.67;;;2.90;99.90;;;;;;5058740;28;20473;-68
2021/12/11 04:17:05;;;;;;;92.27;58.37;;;2.90;99.90;;;;;;5056243;28;20473;-71
2021/12/11 04:19:33;;;;;;;90.07;55.10;;;3.00;99.90;;;;;;5046577;28;21209;-68
2021/12/11 04:22:00;;;;;;;97.43;57.03;;;3.00;99.90;;;;;;5051421;28;20557;-71
2021/12/11 04:24:31;;;;;;;92.63;58.57;;;3.10;99.90;;;;;;5055384;28;20521;-70
2021/12/11 04:27:01;;;;;;;87.27;55.33;;;3.10;99.90;;;;;;5051570;28;20459;-68
2021/12/11 04:29:29;;;;;;;92.77;59.40;;;3.00;99.90;;;;;;5051609;28;20547;-71
2021/12/11 04:32:01;;;;;;;94.50;57.70;;;3.00;99.90;;;;;;5051473;28;20502;-68
2021/12/11 04:34:30;;;;;;;90.27;56.00;;;3.00;99.90;;;;;;5058950;28;20929;-68
2021/12/11 04:37:01;;;;;;;95.17;55.23;;;3.00;99.90;;;;;;5053895;28;20489;-71
2021/12/11 04:39:36;;;;;;;89.53;55.30;;;2.90;99.90;;;;;;5061183;28;20455;-71
2021/12/11 04:42:13;;;;;;;93.30;55.07;;;3.00;99.90;;;;;;5060276;28;20908;-70
2021/12/11 04:44:44;;;;;;;92.93;55.17;;;3.10;99.90;;;;;;5054679;28;20462;-71
2021/12/11 04:47:25;;;;;;;100.73;56.90;;;3.10;99.90;;;;;;5055559;28;20984;-67
2021/12/11 04:49:58;;;;;;;90.87;56.30;;;3.10;99.90;;;;;;5048227;28;20471;-70
2021/12/11 04:52:33;;;;;;;92.60;55.53;;;3.20;99.90;;;;;;5060393;28;21145;-69
2021/12/11 04:55:14;;;;;;;93.63;53.93;;;3.20;99.90;;;;;;5052981;28;20459;-68
2021/12/11 04:57:59;;;;;;;93.03;54.37;;;3.20;99.90;;;;;;5054250;28;20490;-67
2021/12/11 05:00:40;;;;;;;96.47;55.53;;;3.20;99.90;;;;;;5054260;28;20466;-71
2021/12/11 05:03:45;;;;;;;94.10;54.20;;;3.20;99.90;;;;;;5041662;28;20532;-68
2021/12/11 05:06:40;;;;;;;88.37;53.03;;;3.20;99.90;;;;;;5048782;28;20545;-71
2021/12/11 05:09:24;;;;;;;83.07;52.97;;;3.20;99.90;;;;;;5051853;28;20546;-70
2021/12/11 05:12:06;;;;;;;96.87;52.83;;;3.20;99.90;;;;;;5054955;28;20512;-71
2021/12/11 05:14:33;;;;;;;97.17;52.07;;;3.10;99.90;;;;;;5052069;28;20536;-70
2021/12/11 05:17:01;;;;;;;98.20;53.80;;;3.20;99.90;;;;;;5047830;28;20894;-71
2021/12/11 05:19:30;;;;;;;93.27;53.10;;;3.20;99.90;;;;;;5051810;28;20533;-68
2021/12/11 05:21:57;;;;;;;89.40;53.17;;;3.10;99.90;;;;;;5054017;28;20510;-71
2021/12/11 05:24:24;;;;;;;101.83;54.07;;;3.10;99.90;;;;;;5051150;28;20475;-68
2021/12/11 05:26:51;;;;;;;90.20;51.10;;;3.10;99.90;;;;;;5050450;28;21114;-69
2021/12/11 05:29:18;;;;;;;95.40;55.30;;;3.10;99.90;;;;;;5056659;28;20486;-68
2021/12/11 05:31:45;;;;;;;96.30;53.17;;;3.10;99.90;;;;;;5056581;28;21007;-70
2021/12/11 05:34:12;;;;;;;85.77;51.20;;;3.20;99.90;;;;;;5057097;28;20849;-69
2021/12/11 05:36:41;;;;;;;90.43;50.60;;;3.10;99.90;;;;;;5060000;28;20466;-67
2021/12/11 05:39:11;;;;;;;96.83;52.13;;;3.10;99.90;;;;;;5057314;28;20464;-70
2021/12/11 05:41:38;;;;;;;88.23;52.50;;;3.20;99.90;;;;;;5042466;28;20479;-68
2021/12/11 05:44:07;;;;;;;99.97;53.63;;;3.20;99.90;;;;;;5052919;28;20471;-69
2021/12/11 05:46:35;;;;;;;100.10;51.67;;;3.20;99.90;;;;;;5050974;28;20463;-70
2021/12/11 05:49:02;;;;;;;91.67;51.60;;;3.20;99.90;;;;;;5053383;28;20822;-69
2021/12/11 05:51:36;;;;;;;105.07;52.97;;;3.10;99.90;;;;;;5050607;28;20468;-71
2021/12/11 05:54:07;;;;;;;92.83;52.93;;;3.20;99.90;;;;;;5058705;28;21226;-70
2021/12/11 05:56:36;;;;;;;112.43;51.00;;;3.20;99.90;;;;;;5048331;28;20968;-68
2021/12/11 05:59:04;;;;;;;121.70;52.43;;;3.30;99.90;;;;;;5055260;28;21113;-70
2021/12/11 06:01:36;;;;;;;112.67;56.80;;;3.20;99.90;;;;;;5049303;28;20468;-71
2021/12/11 06:04:07;;;;;;;85.60;50.33;;;3.30;99.90;;;;;;5054349;28;20455;-69
2021/12/11 06:06:37;;;;;;;96.80;54.07;;;3.30;99.90;;;;;;5052610;28;20466;-70
2021/12/11 06:09:07;;;;;;;103.67;57.67;;;3.40;99.90;;;;;;5060763;28;20465;-67
2021/12/11 06:11:34;;;;;;;106.07;58.00;;;3.40;99.90;;;;;;5050640;28;21031;-70
2021/12/11 06:14:01;;;;;;;103.37;57.53;;;3.40;99.90;;;;;;5048762;28;20464;-70
2021/12/11 06:16:28;;;;;;;105.30;54.90;;;3.40;99.90;;;;;;5054722;28;20492;-70
2021/12/11 06:19:01;;;;;;;98.63;55.40;;;3.40;99.90;;;;;;5060284;28;20472;-69
2021/12/11 06:21:28;;;;;;;94.23;54.40;;;3.20;99.90;;;;;;5057193;28;20495;-71
2021/12/11 06:23:55;;;;;;;102.23;55.10;;;3.10;99.90;;;;;;5058219;28;20992;-68
2021/12/11 06:26:24;;;;;;;113.13;56.70;;;3.20;99.90;;;;;;5051533;28;20463;-68
2021/12/11 06:28:51;;;;;;;105.93;55.53;;;3.20;99.90;;;;;;5053031;28;20459;-71
2021/12/11 06:31:19;;;;;;;100.60;56.57;;;3.20;99.90;;;;;;5055846;28;20459;-71
2021/12/11 06:33:48;;;;;;;107.03;57.90;;;3.30;99.90;;;;;;5051860;28;20543;-71
2021/12/11 06:36:17;;;;;;;104.20;55.97;;;3.30;99.90;;;;;;5055041;28;20467;-71
2021/12/11 06:38:47;;;;;;;115.97;58.47;;;3.40;99.90;;;;;;5055888;28;20452;-70
2021/12/11 06:41:17;;;;;;;95.10;54.27;;;3.50;99.90;;;;;;5059094;28;21031;-69
2021/12/11 06:43:45;;;;;;;97.57;53.23;;;3.50;99.90;;;;;;5058548;28;20470;-67
2021/12/11 06:46:12;;;;;;;104.70;56.57;;;3.50;99.90;;;;;;5049900;28;20950;-69
2021/12/11 06:48:39;;;;;;;101.87;55.23;;;3.50;99.90;;;;;;5057237;28;20462;-70
2021/12/11 06:51:07;;;;;;;101.27;54.80;;;3.50;99.90;;;;;;5058779;28;20485;-70
2021/12/11 06:53:37;;;;;;;97.30;52.17;;;3.60;99.90;;;;;;5061698;28;20498;-69
2021/12/11 06:56:07;;;;;;;100.20;54.50;;;3.60;99.90;;;;;;5053805;28;20464;-71
2021/12/11 06:58:35;;;;;;;94.00;51.50;;;3.70;99.90;;;;;;5059770;28;20841;-70
2021/12/11 07:01:04;;;;;;;104.07;55.40;;;3.70;99.90;;;;;;5054123;28;20460;-68
2021/12/11 07:03:32;;;;;;;99.67;53.23;;;3.70;99.90;;;;;;5060789;28;20459;-68
2021/12/11 07:06:00;;;;;;;95.80;54.60;;;3.60;99.90;;;;;;5048922;28;20464;-71
2021/12/11 07:08:29;;;;;;;108.00;52.33;;;3.70;99.90;;;;;;5054429;28;21016;-69
2021/12/11 07:10:55;;;;;;;96.93;53.87;;;3.60;99.90;;;;;;5057246;28;20464;-71
2021/12/11 07:13:23;;;;;;;105.60;54.87;;;3.70;99.90;;;;;;5050728;28;20515;-70
2021/12/11 07:15:51;;;;;;;120.43;56.40;;;3.60;99.90;;;;;;5049437;28;20470;-69
2021/12/11 07:18:19;;;;;;;81.53;49.60;;;3.70;99.90;;;;;;5055079;28;20452;-69
2021/12/11 07:20:46;;;;;;;95.10;51.43;;;3.50;99.90;;;;;;5049853;28;20466;-71
2021/12/11 07:23:13;;;;;;;94.63;53.30;;;3.60;99.90;;;;;;5059069;28;20922;-69
2021/12/11 07:25:43;;;;;;;98.97;55.23;;;3.70;99.90;;;;;;5049028;28;20463;-69
2021/12/11 07:28:11;;;;;;;93.27;53.07;;;3.80;99.90;;;;;;5055190;28;20471;-67
2021/12/11 07:30:42;;;;;;;103.60;54.10;;;3.70;99.90;;;;;;5053949;28;21029;-68
2021/12/11 07:33:10;;;;;;;92.17;56.33;;;3.80;99.90;;;;;;5055562;28;20553;-67
2021/12/11 07:35:40;;;;;;;93.90;56.30;;;3.80;99.90;;;;;;5051185;28;20479;-67
2021/12/11 07:38:07;;;;;;;138.37;63.30;;;3.90;99.90;;;;;;5052206;28;20463;-67
2021/12/11 07:40:38;;;;;;;106.50;57.00;;;3.90;99.90;;;;;;5060375;28;20459;-67
2021/12/11 07:43:07;;;;;;;93.17;54.17;;;3.90;99.90;;;;;;5032213;28;20445;-68
2021/12/11 07:45:35;;;;;;;101.80;57.00;;;4.00;99.90;;;;;;5031641;28;20460;-67
2021/12/11 07:51:27;;;;;;;99.30;54.70;;;4.00;99.90;;;;;;5030752;28;20424;-67
2021/12/11 07:53:56;;;;;;;98.83;53.97;;;4.00;99.90;;;;;;5031934;28;20571;-70
2021/12/11 07:56:24;;;;;;;103.13;58.10;;;4.00;99.90;;;;;;5029607;28;21030;-67
2021/12/11 07:58:54;;;;;;;87.53;52.87;;;4.00;99.90;;;;;;5030388;28;20452;-69
2021/12/11 08:01:21;;;;;;;99.17;57.07;;;4.00;99.90;;;;;;5030293;28;20959;-68
2021/12/11 08:03:48;;;;;;;94.47;51.40;;;4.10;99.90;;;;;;5030747;28;20461;-70
2021/12/11 08:06:15;;;;;;;92.07;52.90;;;4.00;99.90;;;;;;5030583;28;20487;-67
2021/12/11 08:08:46;;;;;;;99.40;52.57;;;4.10;99.90;;;;;;5027683;28;20457;-68
2021/12/11 08:11:17;;;;;;;89.00;50.83;;;4.10;99.90;;;;;;5030361;28;20630;-69
2021/12/11 08:13:46;;;;;;;96.13;55.00;;;4.20;99.90;;;;;;5029846;28;20850;-69
2021/12/11 08:16:14;;;;;;;86.17;48.23;;;4.10;99.90;;;;;;5028649;28;20820;-68
2021/12/11 08:22:06;;;;;;;82.20;49.17;;;4.20;99.90;;;;;;5028322;28;20440;-68
2021/12/11 08:24:37;;;;;;;100.20;50.70;;;4.30;99.90;;;;;;5027027;28;20460;-70
2021/12/11 08:27:10;;;;;;;80.60;49.30;;;4.30;99.90;;;;;;5027527;28;20799;-69
2021/12/11 08:29:37;;;;;;;78.20;48.63;;;4.30;99.90;;;;;;5026813;28;20455;-70
2021/12/11 08:32:04;;;;;;;81.70;48.00;;;4.40;99.90;;;;;;5026693;28;20461;-69
2021/12/11 08:34:32;;;;;;;74.43;46.17;;;4.40;99.90;;;;;;5026206;28;20595;-70
2021/12/11 08:37:00;;;;;;;68.13;44.60;;;4.50;99.90;;;;;;5026094;28;20751;-68
2021/12/11 08:39:28;;;;;;;73.00;45.43;;;4.40;99.90;;;;;;5027845;28;20563;-70
2021/12/11 08:41:58;;;;;;;75.17;44.37;;;4.40;99.90;;;;;;5029168;28;21297;-68
2021/12/11 08:44:25;;;;;;;68.13;43.87;;;4.40;99.90;;;;;;5048691;28;20459;-69
2021/12/11 08:46:54;;;;;;;70.50;44.10;;;4.40;99.90;;;;;;5048151;28;20868;-69
2021/12/11 08:49:25;;;;;;;66.30;41.40;;;4.50;99.90;;;;;;5041414;28;20467;-70
2021/12/11 08:51:54;;;;;;;78.43;44.73;;;4.50;99.90;;;;;;5042427;28;21040;-69
2021/12/11 08:54:22;;;;;;;64.90;43.23;;;4.50;99.90;;;;;;5044553;28;20577;-69
2021/12/11 08:56:50;;;;;;;65.70;42.23;;;4.60;99.90;;;;;;5044193;28;20468;-71
2021/12/11 08:59:21;;;;;;;67.17;41.00;;;4.70;99.90;;;;;;5047114;28;20475;-67
2021/12/11 09:01:53;;;;;;;76.07;45.30;;;4.70;99.90;;;;;;5046630;28;20601;-69
2021/12/11 09:04:26;;;;;;;62.17;39.40;;;4.80;99.90;;;;;;5043365;28;20463;-67
2021/12/11 09:06:58;;;;;;;54.50;36.73;;;4.90;99.90;;;;;;5047469;28;20463;-70
2021/12/11 09:09:29;;;;;;;47.10;36.10;;;4.80;99.90;;;;;;5042628;28;20993;-69
2021/12/11 09:12:02;;;;;;;53.10;35.37;;;4.90;99.90;;;;;;5042399;28;20468;-70
2021/12/11 09:14:34;;;;;;;53.80;36.53;;;4.90;99.90;;;;;;5046249;28;20507;-71
2021/12/11 09:17:07;;;;;;;55.27;37.47;;;4.80;99.90;;;;;;5040110;28;20602;-69
2021/12/11 09:19:38;;;;;;;54.70;39.83;;;4.80;99.90;;;;;;5039182;28;21410;-68
2021/12/11 09:22:09;;;;;;;57.13;41.00;;;4.90;99.90;;;;;;5039761;28;20817;-70
2021/12/11 09:24:41;;;;;;;70.53;43.23;;;4.90;99.90;;;;;;5041486;28;20464;-67
2021/12/11 09:27:13;;;;;;;54.73;45.40;;;5.00;99.90;;;;;;5048208;28;20469;-70
2021/12/11 09:29:47;;;;;;;56.63;43.80;;;4.80;99.90;;;;;;5043088;28;20957;-68
2021/12/11 09:32:19;;;;;;;53.23;44.80;;;4.90;99.90;;;;;;5042077;28;20474;-69
2021/12/11 09:34:50;;;;;;;58.13;46.13;;;4.90;99.90;;;;;;5042292;28;20510;-70
2021/12/11 09:37:17;;;;;;;54.77;42.50;;;5.00;99.90;;;;;;5041528;28;20931;-69
2021/12/11 09:39:50;;;;;;;54.87;44.93;;;5.00;99.90;;;;;;5039407;28;20963;-70
2021/12/11 09:42:16;;;;;;;48.27;42.93;;;5.10;99.90;;;;;;5040506;28;20487;-71
2021/12/11 09:44:49;;;;;;;56.90;46.00;;;5.20;99.90;;;;;;5041223;28;20452;-70
2021/12/11 09:47:18;;;;;;;58.43;45.03;;;5.10;99.90;;;;;;5035747;28;20505;-68
2021/12/11 09:49:52;;;;;;;52.90;44.43;;;5.10;99.90;;;;;;5037160;28;20470;-68
2021/12/11 09:52:24;;;;;;;52.90;45.10;;;5.10;99.90;;;;;;5039096;28;20487;-72
2021/12/11 09:54:54;;;;;;;56.13;45.37;;;5.20;99.90;;;;;;5040479;28;20499;-72
2021/12/11 09:57:24;;;;;;;66.53;44.93;;;5.20;99.90;;;;;;5035824;28;20487;-70
2021/12/11 09:59:56;;;;;;;59.90;45.27;;;5.30;99.90;;;;;;5037175;28;20460;-71
2021/12/11 10:02:27;;;;;;;53.93;44.83;;;5.30;99.90;;;;;;5038899;28;20471;-72
2021/12/11 10:05:00;;;;;;;54.73;42.50;;;5.40;99.90;;;;;;5040814;28;20459;-68
2021/12/11 10:07:34;;;;;;;48.77;43.33;;;5.40;99.90;;;;;;5041885;28;21197;-70
2021/12/11 10:10:14;;;;;;;58.43;42.40;;;5.60;99.90;;;;;;5046104;28;20524;-69
2021/12/11 10:12:44;;;;;;;53.43;41.00;;;5.80;99.90;;;;;;5047015;28;20468;-69
2021/12/11 10:15:19;;;;;;;46.27;36.00;;;5.80;99.90;;;;;;5045200;28;20836;-71
2021/12/11 10:17:49;;;;;;;49.83;38.27;;;5.90;99.90;;;;;;5055550;28;20464;-72
2021/12/11 10:20:19;;;;;;;52.17;39.83;;;5.90;99.90;;;;;;5051598;28;20466;-70
2021/12/11 10:22:49;;;;;;;45.53;38.53;;;6.00;99.90;;;;;;5046233;28;21342;-68
2021/12/11 10:25:18;;;;;;;63.13;39.87;;;6.00;99.90;;;;;;5051100;28;20459;-69
2021/12/11 10:27:46;;;;;;;45.80;36.70;;;6.00;99.90;;;;;;5047608;28;20474;-68
2021/12/11 10:30:19;;;;;;;40.47;34.57;;;6.20;99.90;;;;;;5049861;28;21008;-69
2021/12/11 10:32:46;;;;;;;45.53;32.77;;;6.20;99.90;;;;;;5045983;28;20468;-69
2021/12/11 10:35:18;;;;;;;52.27;31.57;;;6.30;99.90;;;;;;5054448;28;20474;-69
2021/12/11 10:37:47;;;;;;;47.20;30.93;;;6.50;99.90;;;;;;5049856;28;20482;-69
2021/12/11 10:40:19;;;;;;;36.37;27.27;;;6.40;99.90;;;;;;5050215;28;20828;-69
2021/12/11 10:42:53;;;;;;;36.93;26.90;;;6.50;99.90;;;;;;5048600;28;20494;-68
2021/12/11 10:45:22;;;;;;;31.53;28.10;;;6.50;99.90;;;;;;5049003;28;20872;-68
2021/12/11 10:47:52;;;;;;;33.63;25.00;;;6.50;99.90;;;;;;5049645;28;20494;-68
2021/12/11 10:50:23;;;;;;;42.63;26.70;;;6.50;99.90;;;;;;5046583;28;20481;-68
2021/12/11 10:52:51;;;;;;;29.37;25.73;;;6.50;99.90;;;;;;5046812;28;20824;-68
2021/12/11 10:55:22;;;;;;;43.13;27.07;;;6.50;99.90;;;;;;5050858;28;20492;-68
2021/12/11 10:57:53;;;;;;;27.40;24.50;;;6.60;99.90;;;;;;5047412;28;20887;-69
2021/12/11 11:00:25;;;;;;;30.27;26.87;;;6.50;99.90;;;;;;5052060;28;20560;-68
2021/12/11 11:02:53;;;;;;;29.23;24.30;;;6.60;99.90;;;;;;5049807;28;20460;-68
2021/12/11 11:05:21;;;;;;;34.03;23.93;;;6.60;99.90;;;;;;5047582;28;20492;-69
2021/12/11 11:07:49;;;;;;;30.87;24.93;;;6.70;99.90;;;;;;5051749;28;20470;-68
2021/12/11 11:10:19;;;;;;;25.90;23.60;;;6.70;99.90;;;;;;5043150;28;20464;-69
2021/12/11 11:12:48;;;;;;;38.07;24.70;;;6.80;99.90;;;;;;5046596;28;20476;-69
2021/12/11 11:15:20;;;;;;;27.63;22.83;;;6.90;99.90;;;;;;5042039;28;20873;-69
2021/12/11 11:17:51;;;;;;;27.27;23.30;;;6.90;99.90;;;;;;5043903;28;20470;-70
2021/12/11 11:20:21;;;;;;;27.23;23.70;;;6.90;99.90;;;;;;5051447;28;20500;-73
2021/12/11 11:22:48;;;;;;;31.93;25.00;;;6.80;99.90;;;;;;5046948;28;20627;-72
2021/12/11 11:25:18;;;;;;;29.60;24.63;;;7.00;99.90;;;;;;5036820;28;20471;-69
2021/12/11 11:27:47;;;;;;;26.20;23.90;;;7.00;99.90;;;;;;5042401;28;20468;-71
2021/12/11 11:30:20;;;;;;;29.30;24.20;;;7.10;99.90;;;;;;5047166;28;20466;-69
2021/12/11 11:32:49;;;;;;;29.13;23.77;;;7.10;99.90;;;;;;5050777;28;20464;-71
2021/12/11 11:35:22;;;;;;;25.77;23.07;;;7.10;99.90;;;;;;5058164;28;20498;-68
2021/12/11 11:37:51;;;;;;;27.37;23.33;;;7.20;99.90;;;;;;5049322;28;20996;-68
2021/12/11 11:40:24;;;;;;;25.07;21.63;;;7.20;99.90;;;;;;5052881;28;20492;-68
2021/12/11 11:42:51;;;;;;;25.87;23.40;;;7.20;99.90;;;;;;5046840;28;20494;-69
2021/12/11 11:45:19;;;;;;;25.83;23.13;;;7.20;99.90;;;;;;5045185;28;20491;-68
2021/12/11 11:47:47;;;;;;;24.70;22.03;;;7.20;99.90;;;;;;5050434;28;20483;-68
2021/12/11 11:50:20;;;;;;;31.20;26.30;;;7.10;99.90;;;;;;5045938;28;20475;-68
2021/12/11 11:52:48;;;;;;;26.27;23.60;;;7.00;99.90;;;;;;5045157;28;20494;-68
2021/12/11 11:55:20;;;;;;;25.80;23.10;;;7.00;99.90;;;;;;5037074;28;20523;-69
2021/12/11 11:57:50;;;;;;;25.73;23.33;;;7.10;99.90;;;;;;5046038;28;20464;-69
2021/12/11 12:00:21;;;;;;;26.43;23.70;;;7.30;99.90;;;;;;5040770;28;20889;-68
2021/12/11 12:02:49;;;;;;;26.17;23.00;;;7.50;99.90;;;;;;5050390;28;21038;-69
2021/12/11 12:05:17;;;;;;;25.77;23.07;;;7.50;99.90;;;;;;5049804;28;20471;-68
2021/12/11 12:07:46;;;;;;;26.73;22.87;;;7.40;99.90;;;;;;5050843;28;20486;-68
2021/12/11 12:10:16;;;;;;;28.30;23.33;;;7.30;99.90;;;;;;5046374;28;20461;-68
2021/12/11 12:12:44;;;;;;;26.50;23.90;;;7.30;99.90;;;;;;5051094;28;20471;-68
2021/12/11 12:15:15;;;;;;;27.60;24.20;;;7.30;99.90;;;;;;5051617;28;20491;-68
2021/12/11 12:17:42;;;;;;;27.50;23.37;;;7.50;99.90;;;;;;5051752;28;20933;-68
2021/12/11 12:20:12;;;;;;;24.37;22.33;;;7.30;99.90;;;;;;5055060;28;20476;-68
2021/12/11 12:22:42;;;;;;;28.40;25.10;;;7.20;99.90;;;;;;5053621;28;20455;-68
2021/12/11 12:25:09;;;;;;;36.80;23.87;;;7.40;99.90;;;;;;5054563;28;21042;-68
2021/12/11 12:27:39;;;;;;;26.67;24.00;;;7.50;99.90;;;;;;5054156;28;21005;-68
2021/12/11 12:30:10;;;;;;;33.43;23.33;;;7.40;99.90;;;;;;5054047;28;20467;-68
2021/12/11 12:32:37;;;;;;;24.33;22.03;;;7.40;99.90;;;;;;5049136;28;20480;-68
2021/12/11 12:35:09;;;;;;;25.30;22.87;;;7.50;99.90;;;;;;5048315;28;21082;-68
2021/12/11 12:37:38;;;;;;;25.23;22.90;;;7.60;99.90;;;;;;5058215;28;21104;-68
2021/12/11 12:40:11;;;;;;;27.30;22.40;;;7.50;99.90;;;;;;5056050;28;20460;-68
2021/12/11 12:42:50;;;;;;;25.57;21.80;;;7.70;99.90;;;;;;5058286;28;20479;-68
2021/12/11 12:45:21;;;;;;;23.10;21.03;;;8.00;99.90;;;;;;5050332;28;20557;-69
2021/12/11 12:47:55;;;;;;;22.60;20.70;;;8.30;99.90;;;;;;5047979;28;20469;-68
2021/12/11 12:50:25;;;;;;;26.10;21.40;;;8.60;99.90;;;;;;5049987;28;20469;-68
2021/12/11 12:52:52;;;;;;;25.37;21.43;;;8.60;99.90;;;;;;5057119;28;21001;-68
2021/12/11 12:55:26;;;;;;;21.87;19.90;;;8.80;99.90;;;;;;5046611;28;20479;-70
2021/12/11 12:57:59;;;;;;;21.10;19.20;;;8.50;99.90;;;;;;5052379;28;20551;-69